Time;durP1;ratioP1;P1;durP2;ratioP2;P2;SDS_P1;SDS_P2;PMS_P1;PMS_P2;Temp;Humidity;BMP_temperature;BMP_pressure;BME280_temperature;BME280_humidity;BME280_pressure;Samples;Min_cycle;Max_cycle;Signal;HPM_P1;HPM_P2
2022/08/06 00:01:10;;;;;;;0.25;0.22;;;12.10;68.10;;;;;;4095945;28;20094;-85
2022/08/06 00:03:11;;;;;;;1.45;0.40;;;12.10;68.10;;;;;;4095350;28;20440;-84
2022/08/06 00:05:12;;;;;;;2.42;0.85;;;12.10;68.20;;;;;;4087998;28;20035;-86
2022/08/06 00:07:13;;;;;;;1.08;0.40;;;12.00;68.20;;;;;;4073712;29;20039;-85
2022/08/06 00:09:14;;;;;;;1.73;0.45;;;12.00;68.30;;;;;;4076476;29;20130;-85
2022/08/06 00:11:14;;;;;;;4.07;0.35;;;12.00;68.30;;;;;;4113417;28;20034;-85
2022/08/06 00:13:17;;;;;;;2.28;0.40;;;12.00;68.30;;;;;;4081096;29;20068;-85
2022/08/06 00:15:18;;;;;;;3.13;0.40;;;11.90;68.30;;;;;;4078176;29;20027;-85
2022/08/06 00:17:20;;;;;;;2.72;0.57;;;11.90;68.30;;;;;;4095510;28;20067;-86
2022/08/06 00:19:21;;;;;;;2.22;0.43;;;11.90;68.30;;;;;;4078211;29;20075;-86
2022/08/06 00:21:22;;;;;;;1.98;0.45;;;11.90;68.40;;;;;;4063137;29;20036;-85
2022/08/06 00:23:23;;;;;;;3.42;0.40;;;11.90;68.50;;;;;;4077201;29;20773;-85
2022/08/06 00:25:24;;;;;;;3.03;0.70;;;11.90;68.50;;;;;;4095567;28;20403;-86
2022/08/06 00:27:24;;;;;;;4.10;0.68;;;11.80;68.60;;;;;;4078768;29;20199;-85
2022/08/06 00:29:25;;;;;;;1.80;0.57;;;11.80;68.60;;;;;;4077426;29;20035;-86
2022/08/06 00:31:26;;;;;;;3.28;0.45;;;11.80;68.60;;;;;;4092384;28;20509;-85
2022/08/06 00:33:26;;;;;;;1.73;0.40;;;11.80;68.60;;;;;;4109195;28;20463;-85
2022/08/06 00:35:27;;;;;;;4.10;0.65;;;11.80;68.70;;;;;;4093168;28;20042;-85
2022/08/06 00:37:28;;;;;;;3.70;0.40;;;11.80;68.70;;;;;;4094601;28;20711;-85
2022/08/06 00:39:29;;;;;;;3.03;0.60;;;11.80;68.70;;;;;;4076561;29;20577;-85
2022/08/06 00:41:31;;;;;;;3.22;0.52;;;11.70;68.60;;;;;;4076483;29;20435;-85
2022/08/06 00:43:31;;;;;;;5.80;0.75;;;11.70;68.70;;;;;;4075328;29;20039;-85
2022/08/06 00:45:34;;;;;;;5.32;0.80;;;11.70;68.70;;;;;;4092502;28;20384;-85
2022/08/06 00:47:34;;;;;;;1.92;0.60;;;11.70;68.80;;;;;;4075671;29;20043;-87
2022/08/06 00:49:35;;;;;;;1.23;0.55;;;11.60;68.80;;;;;;4095011;28;20042;-85
2022/08/06 00:51:36;;;;;;;1.95;0.68;;;11.60;68.90;;;;;;4097403;28;20388;-84
2022/08/06 00:53:37;;;;;;;1.85;0.88;;;11.70;69.10;;;;;;4093773;28;20031;-85
2022/08/06 00:55:37;;;;;;;3.28;0.50;;;11.60;69.10;;;;;;4107202;28;20084;-85
2022/08/06 00:57:39;;;;;;;2.35;0.73;;;11.60;69.20;;;;;;4091862;28;20491;-85
2022/08/06 00:59:39;;;;;;;3.90;0.85;;;11.50;69.20;;;;;;4089426;28;20035;-85
2022/08/06 01:01:41;;;;;;;2.15;0.70;;;11.50;69.20;;;;;;4078446;29;22219;-84
2022/08/06 01:03:46;;;;;;;1.77;0.65;;;11.50;69.30;;;;;;4089373;28;20055;-86
2022/08/06 01:05:47;;;;;;;3.55;0.70;;;11.50;69.30;;;;;;4090338;28;20031;-85
2022/08/06 01:07:47;;;;;;;1.83;0.88;;;11.50;69.40;;;;;;4073307;29;20031;-85
2022/08/06 01:09:49;;;;;;;1.30;0.70;;;11.50;69.50;;;;;;4093389;28;20039;-85
2022/08/06 01:11:49;;;;;;;4.53;0.70;;;11.40;69.30;;;;;;4093664;28;20035;-85
2022/08/06 01:13:50;;;;;;;1.48;0.40;;;11.40;69.40;;;;;;4092617;28;20041;-85
2022/08/06 01:16:05;;;;;;;2.75;0.80;;;11.40;69.40;;;;;;4066492;29;20042;-85
2022/08/06 01:18:10;;;;;;;4.82;0.68;;;11.40;69.50;;;;;;4077120;29;20035;-85
2022/08/06 01:20:19;;;;;;;3.03;0.70;;;11.30;69.40;;;;;;4076362;29;20086;-87
2022/08/06 01:22:41;;;;;;;2.40;0.50;;;11.30;69.50;;;;;;4088035;28;20019;-85
2022/08/06 01:25:01;;;;;;;1.95;0.52;;;11.30;69.80;;;;;;4076801;29;20455;-85
2022/08/06 01:27:30;;;;;;;3.70;0.77;;;11.30;69.70;;;;;;4109126;28;20030;-85
2022/08/06 01:29:39;;;;;;;5.20;1.02;;;11.30;69.80;;;;;;4093725;28;20094;-85
2022/08/06 01:32:03;;;;;;;3.55;0.52;;;11.30;69.70;;;;;;4093804;28;20055;-85
2022/08/06 01:34:10;;;;;;;4.57;1.00;;;11.20;69.80;;;;;;4093903;28;20039;-85
2022/08/06 01:36:18;;;;;;;1.33;0.60;;;11.20;69.60;;;;;;4094195;28;20069;-86
2022/08/06 01:38:30;;;;;;;5.45;0.70;;;11.20;69.60;;;;;;4092894;28;20035;-86
2022/08/06 01:40:34;;;;;;;1.48;0.70;;;11.20;69.60;;;;;;4074806;29;20059;-85
2022/08/06 01:42:36;;;;;;;3.35;0.90;;;11.20;69.70;;;;;;4107644;28;20040;-85
2022/08/06 01:44:40;;;;;;;7.05;1.02;;;11.20;69.80;;;;;;4076581;29;20023;-83
2022/08/06 01:46:45;;;;;;;4.53;0.60;;;11.20;69.80;;;;;;4076429;29;20478;-85
2022/08/06 01:48:46;;;;;;;2.63;0.85;;;11.20;69.80;;;;;;4093743;28;20023;-85
2022/08/06 01:50:48;;;;;;;6.68;0.90;;;11.20;69.90;;;;;;4095973;28;20042;-85
2022/08/06 01:52:51;;;;;;;3.85;0.70;;;11.10;69.80;;;;;;4109762;28;20042;-85
2022/08/06 01:54:54;;;;;;;2.10;1.00;;;11.10;69.80;;;;;;4095423;28;20571;-85
2022/08/06 01:56:57;;;;;;;2.15;0.70;;;11.10;69.90;;;;;;4096936;28;20027;-85
2022/08/06 01:59:01;;;;;;;6.63;0.70;;;11.10;69.90;;;;;;4078859;29;20031;-85
2022/08/06 02:01:06;;;;;;;6.10;0.90;;;11.10;69.90;;;;;;4091130;28;20435;-85
2022/08/06 02:03:18;;;;;;;2.17;0.70;;;11.10;70.00;;;;;;4093784;28;20031;-85
2022/08/06 02:05:21;;;;;;;3.42;0.57;;;11.00;69.90;;;;;;4092077;28;20039;-85
2022/08/06 02:07:26;;;;;;;4.68;0.60;;;11.00;69.90;;;;;;4091728;28;20423;-85
2022/08/06 02:09:29;;;;;;;3.80;0.70;;;11.00;69.90;;;;;;4093261;28;20036;-85
2022/08/06 02:11:31;;;;;;;;;;;11.00;69.90;;;;;;4077456;29;20031;-85
2022/08/06 02:13:35;;;;;;;9.10;0.93;;;11.00;70.50;;;;;;4107048;28;20477;-85
2022/08/06 02:15:37;;;;;;;2.00;0.75;;;11.00;69.80;;;;;;4075421;29;20529;-84
2022/08/06 02:17:42;;;;;;;1.95;0.60;;;11.00;69.90;;;;;;4107615;28;20483;-85
2022/08/06 02:19:46;;;;;;;2.05;0.43;;;11.00;70.00;;;;;;4076617;29;20972;-85
2022/08/06 02:21:49;;;;;;;7.80;0.80;;;10.90;69.90;;;;;;4096414;28;20091;-85
2022/08/06 02:23:51;;;;;;;3.07;0.70;;;10.90;70.00;;;;;;4090399;28;20055;-85
2022/08/06 02:25:55;;;;;;;2.63;0.70;;;10.90;70.00;;;;;;4092327;28;20558;-85
2022/08/06 02:27:57;;;;;;;;;;;10.90;70.10;;;;;;4077535;29;20091;-85
2022/08/06 02:30:00;;;;;;;3.33;0.50;;;10.90;70.80;;;;;;4075923;29;19955;-85
2022/08/06 02:32:01;;;;;;;3.25;0.70;;;10.80;70.00;;;;;;4105563;28;20082;-86
2022/08/06 02:34:02;;;;;;;3.33;0.60;;;10.90;70.20;;;;;;4091937;28;20027;-86
2022/08/06 02:36:16;;;;;;;5.07;0.60;;;10.80;71.20;;;;;;4075586;29;20048;-85
2022/08/06 02:38:40;;;;;;;1.85;0.50;;;10.80;70.40;;;;;;4087434;29;20036;-86
2022/08/06 02:40:46;;;;;;;4.68;0.50;;;10.80;70.50;;;;;;4095880;28;20042;-85
2022/08/06 02:43:00;;;;;;;4.75;0.50;;;10.80;70.50;;;;;;4094552;28;20042;-86
2022/08/06 02:45:07;;;;;;;1.45;0.50;;;10.80;70.80;;;;;;4094507;28;20035;-86
2022/08/06 02:47:17;;;;;;;5.40;0.90;;;10.80;70.70;;;;;;4093347;28;20041;-86
2022/08/06 02:49:25;;;;;;;2.67;0.50;;;10.80;70.90;;;;;;4108075;28;20031;-86
2022/08/06 02:51:43;;;;;;;4.70;0.90;;;10.80;70.90;;;;;;4080348;29;20036;-87
2022/08/06 02:54:12;;;;;;;3.92;0.47;;;10.70;70.90;;;;;;4096969;28;20171;-86
2022/08/06 02:56:15;;;;;;;2.33;0.52;;;10.70;71.00;;;;;;4095867;28;20506;-86
2022/08/06 02:58:37;;;;;;;3.70;0.60;;;10.70;71.00;;;;;;4095002;28;20035;-86
2022/08/06 03:00:41;;;;;;;5.10;0.40;;;10.70;71.10;;;;;;4094054;28;20094;-86
2022/08/06 03:02:45;;;;;;;3.67;0.50;;;10.70;71.10;;;;;;4081011;29;20031;-86
2022/08/06 03:04:48;;;;;;;1.35;0.50;;;10.70;71.20;;;;;;4097189;28;20049;-86
2022/08/06 03:06:50;;;;;;;6.65;0.95;;;10.70;71.20;;;;;;4097075;28;20145;-85
2022/08/06 03:08:53;;;;;;;5.72;0.73;;;10.70;71.30;;;;;;4098993;28;20108;-86
2022/08/06 03:10:54;;;;;;;;;;;10.70;71.40;;;;;;4093356;28;20043;-85
2022/08/06 03:12:57;;;;;;;1.58;0.50;;;10.70;72.20;;;;;;4097323;28;20017;-86
2022/08/06 03:14:59;;;;;;;4.30;0.77;;;10.80;71.50;;;;;;4097699;28;20043;-86
2022/08/06 03:17:01;;;;;;;4.97;0.63;;;10.80;71.50;;;;;;4081385;29;20127;-86
2022/08/06 03:19:03;;;;;;;5.15;0.45;;;10.80;71.60;;;;;;4085431;29;20036;-86
2022/08/06 03:21:06;;;;;;;4.22;0.57;;;10.70;71.60;;;;;;4105415;28;20119;-86
2022/08/06 03:23:08;;;;;;;5.13;0.60;;;10.80;71.70;;;;;;4105009;28;20041;-86
2022/08/06 03:25:10;;;;;;;3.92;0.60;;;10.70;71.60;;;;;;4100480;28;20039;-85
2022/08/06 03:27:11;;;;;;;5.10;0.40;;;10.70;71.70;;;;;;4086557;29;20039;-86
2022/08/06 03:29:12;;;;;;;3.53;0.60;;;10.70;71.70;;;;;;4086402;29;20071;-86
2022/08/06 03:31:14;;;;;;;4.68;0.60;;;10.70;71.80;;;;;;4098809;28;20059;-85
2022/08/06 03:33:17;;;;;;;4.88;0.55;;;10.80;71.80;;;;;;4105098;28;20062;-87
2022/08/06 03:35:19;;;;;;;;;;;10.70;71.80;;;;;;4103503;28;20091;-86
2022/08/06 03:37:22;;;;;;;3.08;0.68;;;10.70;72.20;;;;;;4105444;28;19929;-86
2022/08/06 03:39:25;;;;;;;2.67;0.63;;;10.70;71.40;;;;;;4105296;28;20047;-85
2022/08/06 03:41:28;;;;;;;2.58;0.60;;;10.70;71.40;;;;;;4104947;28;20087;-87
2022/08/06 03:43:30;;;;;;;2.28;0.75;;;10.70;71.50;;;;;;4088669;29;20075;-87
2022/08/06 03:45:35;;;;;;;3.17;0.75;;;10.70;71.70;;;;;;4086595;29;20146;-86
2022/08/06 03:47:48;;;;;;;2.25;0.90;;;10.70;71.60;;;;;;4104206;28;20038;-85
2022/08/06 03:49:55;;;;;;;3.65;0.60;;;10.70;71.80;;;;;;4105734;28;20045;-86
2022/08/06 03:51:59;;;;;;;5.00;0.50;;;10.70;71.70;;;;;;4104040;28;20586;-86
2022/08/06 03:54:01;;;;;;;3.17;0.70;;;10.60;71.60;;;;;;4105803;28;20042;-85
2022/08/06 03:56:03;;;;;;;3.03;1.05;;;10.60;72.50;;;;;;4103748;28;20042;-85
2022/08/06 03:58:11;;;;;;;11.90;0.80;;;10.60;71.70;;;;;;4103921;28;20027;-86
2022/08/06 04:00:15;;;;;;;3.85;0.60;;;10.60;71.90;;;;;;4103823;28;20059;-85
2022/08/06 04:02:17;;;;;;;4.28;0.73;;;10.60;71.90;;;;;;4088926;29;20512;-85
2022/08/06 04:04:19;;;;;;;4.18;0.70;;;10.60;72.00;;;;;;4105158;28;20074;-86
2022/08/06 04:06:23;;;;;;;3.72;0.50;;;10.60;72.00;;;;;;4085375;29;20036;-85
2022/08/06 04:08:25;;;;;;;2.15;0.65;;;10.70;72.10;;;;;;4104849;28;20039;-86
2022/08/06 04:10:38;;;;;;;3.30;0.80;;;10.60;72.10;;;;;;4104200;28;20031;-85
2022/08/06 04:12:40;;;;;;;1.77;0.60;;;10.60;72.20;;;;;;4102981;28;20058;-86
2022/08/06 04:14:40;;;;;;;3.78;0.80;;;10.60;72.10;;;;;;4103184;28;20086;-86
2022/08/06 04:16:42;;;;;;;3.75;0.75;;;10.60;72.20;;;;;;4083120;29;20047;-86
2022/08/06 04:18:44;;;;;;;6.20;0.60;;;10.70;72.30;;;;;;4079652;29;20040;-85
2022/08/06 04:20:48;;;;;;;5.07;0.60;;;10.60;72.30;;;;;;4095144;28;20031;-85
2022/08/06 04:22:49;;;;;;;4.53;0.60;;;10.70;72.50;;;;;;4094329;28;20688;-85
2022/08/06 04:24:50;;;;;;;3.35;0.75;;;10.60;72.50;;;;;;4077642;29;20133;-86
2022/08/06 04:26:53;;;;;;;5.25;0.70;;;10.70;72.80;;;;;;4078054;29;21150;-85
2022/08/06 04:28:56;;;;;;;5.57;0.70;;;10.70;73.00;;;;;;4083589;29;20056;-85
2022/08/06 04:30:58;;;;;;;4.20;0.95;;;10.70;73.20;;;;;;4094788;28;20114;-85
2022/08/06 04:33:02;;;;;;;10.35;0.90;;;10.70;73.50;;;;;;4093916;28;20358;-85
2022/08/06 04:35:06;;;;;;;7.35;0.65;;;10.80;73.70;;;;;;4076461;29;20036;-85
2022/08/06 04:37:07;;;;;;;4.88;0.75;;;10.80;73.90;;;;;;4099000;28;20043;-85
2022/08/06 04:39:08;;;;;;;3.35;0.80;;;10.90;74.20;;;;;;4099208;28;20055;-87
2022/08/06 04:41:10;;;;;;;2.22;0.70;;;10.90;74.60;;;;;;4097889;28;20027;-85
2022/08/06 04:43:12;;;;;;;3.20;0.95;;;11.00;74.70;;;;;;4076967;29;20158;-86
2022/08/06 04:45:13;;;;;;;2.78;0.52;;;11.00;74.60;;;;;;4096304;28;20122;-87
2022/08/06 04:47:15;;;;;;;8.52;0.60;;;11.10;74.70;;;;;;4105454;28;20042;-85
2022/08/06 04:49:16;;;;;;;6.95;0.90;;;11.10;74.40;;;;;;4093193;28;20046;-86
2022/08/06 04:51:17;;;;;;;8.98;0.75;;;11.20;74.40;;;;;;4094620;28;20526;-85
2022/08/06 04:53:19;;;;;;;2.75;0.60;;;11.20;74.40;;;;;;4096356;28;20043;-86
2022/08/06 04:55:20;;;;;;;3.33;1.00;;;11.30;74.50;;;;;;4095352;28;20046;-86
2022/08/06 04:57:21;;;;;;;2.95;0.73;;;11.30;74.60;;;;;;4096160;28;20174;-87
2022/08/06 04:59:22;;;;;;;7.05;0.90;;;11.40;74.80;;;;;;4111074;28;20023;-87
2022/08/06 05:01:23;;;;;;;5.55;0.60;;;11.50;74.90;;;;;;4113129;28;20015;-87
2022/08/06 05:03:24;;;;;;;4.53;0.63;;;11.40;74.80;;;;;;4105722;28;20032;-85
2022/08/06 05:05:31;;;;;;;7.80;0.80;;;11.60;74.90;;;;;;4077929;28;20510;-85
2022/08/06 05:07:34;;;;;;;3.47;0.50;;;11.70;75.00;;;;;;4095913;28;20027;-85
2022/08/06 05:09:35;;;;;;;4.80;0.50;;;11.70;75.00;;;;;;4096146;28;20078;-85
2022/08/06 05:11:40;;;;;;;1.27;0.40;;;11.80;74.80;;;;;;4110944;28;20030;-85
2022/08/06 05:13:44;;;;;;;7.57;0.68;;;11.90;74.50;;;;;;4101315;28;20027;-86
2022/08/06 05:15:56;;;;;;;2.90;0.43;;;12.00;74.20;;;;;;4101202;28;20125;-86
2022/08/06 05:18:01;;;;;;;2.67;0.70;;;12.10;74.00;;;;;;4095139;28;20027;-86
2022/08/06 05:20:11;;;;;;;2.90;0.45;;;12.10;73.80;;;;;;4095348;28;20026;-85
2022/08/06 05:22:15;;;;;;;0.90;0.35;;;12.20;73.70;;;;;;4090421;28;20028;-85
2022/08/06 05:24:16;;;;;;;1.90;0.75;;;12.30;73.60;;;;;;4095868;28;20158;-85
2022/08/06 05:26:17;;;;;;;4.95;0.75;;;12.30;73.60;;;;;;4078243;29;20042;-85
2022/08/06 05:28:17;;;;;;;6.45;0.82;;;12.40;73.60;;;;;;4091076;28;20035;-86
2022/08/06 05:30:18;;;;;;;5.25;0.50;;;12.50;73.70;;;;;;4097184;28;20039;-85
2022/08/06 05:32:19;;;;;;;4.15;0.60;;;12.50;73.60;;;;;;4110977;28;20117;-85
2022/08/06 05:34:20;;;;;;;3.15;0.52;;;12.60;73.50;;;;;;4059930;29;20039;-85
2022/08/06 05:36:21;;;;;;;3.22;0.63;;;12.70;73.60;;;;;;4107060;28;20057;-85
2022/08/06 05:38:21;;;;;;;8.70;1.00;;;12.80;73.50;;;;;;4093784;28;20058;-87
2022/08/06 05:40:22;;;;;;;1.75;0.70;;;12.90;73.60;;;;;;4088655;28;20043;-85
2022/08/06 05:42:23;;;;;;;9.30;0.75;;;13.00;73.70;;;;;;4094289;28;20058;-86
2022/08/06 05:44:24;;;;;;;3.60;0.50;;;13.00;73.50;;;;;;4082258;28;20146;-85
2022/08/06 05:46:35;;;;;;;3.80;0.80;;;13.10;73.50;;;;;;4093139;28;20020;-84
2022/08/06 05:48:49;;;;;;;3.55;0.73;;;13.20;73.20;;;;;;4090685;29;20664;-85
2022/08/06 05:50:56;;;;;;;4.72;0.57;;;13.30;73.00;;;;;;4092018;28;20046;-86
2022/08/06 05:53:05;;;;;;;5.38;0.80;;;13.40;72.80;;;;;;4092351;28;20054;-86
2022/08/06 05:55:21;;;;;;;6.00;1.00;;;13.50;73.40;;;;;;4094373;28;20107;-86
2022/08/06 05:57:31;;;;;;;11.30;1.00;;;13.60;72.30;;;;;;4089607;28;20606;-85
2022/08/06 05:59:37;;;;;;;8.63;1.02;;;13.70;72.00;;;;;;4092767;28;20031;-86
2022/08/06 06:01:38;;;;;;;2.85;0.93;;;13.70;71.50;;;;;;4094102;28;20063;-86
2022/08/06 06:03:41;;;;;;;5.72;0.98;;;13.80;71.20;;;;;;4093459;28;20081;-86
2022/08/06 06:05:43;;;;;;;4.93;1.27;;;13.90;70.90;;;;;;4107494;28;20105;-86
2022/08/06 06:07:44;;;;;;;6.13;1.05;;;14.00;70.60;;;;;;4107396;28;20042;-86
2022/08/06 06:09:45;;;;;;;8.82;1.15;;;14.10;70.30;;;;;;4106608;28;20761;-86
2022/08/06 06:11:48;;;;;;;2.00;0.90;;;14.20;70.00;;;;;;4092857;28;20066;-86
2022/08/06 06:13:50;;;;;;;8.35;1.60;;;14.30;69.70;;;;;;4095116;28;20049;-86
2022/08/06 06:15:57;;;;;;;3.42;1.00;;;14.30;68.90;;;;;;4076570;29;20046;-86
2022/08/06 06:18:24;;;;;;;6.72;1.40;;;14.40;68.30;;;;;;4095097;28;20107;-85
2022/08/06 06:20:33;;;;;;;5.57;1.30;;;14.50;67.80;;;;;;4053043;29;20047;-86
2022/08/06 06:22:46;;;;;;;16.67;1.45;;;14.50;67.60;;;;;;4092993;28;20391;-84
2022/08/06 06:25:12;;;;;;;3.50;1.38;;;14.60;67.40;;;;;;4080403;29;20485;-85
2022/08/06 06:27:24;;;;;;;15.00;1.40;;;14.60;67.60;;;;;;4086748;28;20047;-86
2022/08/06 06:29:44;;;;;;;3.53;1.23;;;14.80;66.60;;;;;;4095210;28;20031;-85
2022/08/06 06:32:15;;;;;;;4.30;1.40;;;14.90;66.20;;;;;;4098628;28;20034;-84
2022/08/06 06:34:21;;;;;;;3.92;1.38;;;14.90;65.30;;;;;;4101712;28;20035;-84
2022/08/06 06:36:47;;;;;;;3.30;1.17;;;15.00;64.50;;;;;;4111529;28;20503;-85
2022/08/06 06:38:57;;;;;;;4.18;1.20;;;15.00;62.80;;;;;;4083270;29;20527;-85
2022/08/06 06:41:05;;;;;;;4.95;1.38;;;15.10;62.70;;;;;;4099773;28;20027;-85
2022/08/06 06:43:10;;;;;;;6.10;1.63;;;15.10;62.70;;;;;;4101602;28;20209;-86
2022/08/06 06:45:17;;;;;;;3.60;1.85;;;15.20;62.30;;;;;;4081630;29;20032;-85
2022/08/06 06:48:09;;;;;;;9.32;1.73;;;15.30;62.10;;;;;;4097498;28;20043;-86
2022/08/06 06:50:26;;;;;;;4.43;1.70;;;15.40;61.30;;;;;;4081794;28;20734;-86
2022/08/06 06:52:34;;;;;;;2.90;1.60;;;15.40;60.70;;;;;;4111693;28;20097;-85
2022/08/06 06:54:45;;;;;;;8.73;2.00;;;15.40;60.20;;;;;;4096505;28;20538;-86
2022/08/06 06:56:48;;;;;;;3.55;1.58;;;15.50;60.20;;;;;;4097908;28;20678;-86
2022/08/06 06:58:59;;;;;;;3.03;1.65;;;15.60;60.50;;;;;;4098297;28;20038;-85
2022/08/06 07:01:03;;;;;;;5.97;1.65;;;15.70;60.00;;;;;;4096303;28;20836;-85
2022/08/06 07:03:05;;;;;;;5.70;1.95;;;15.70;59.50;;;;;;4096352;28;20628;-86
2022/08/06 07:05:09;;;;;;;8.82;2.05;;;15.70;59.20;;;;;;4095038;28;20035;-85
2022/08/06 07:07:11;;;;;;;3.95;1.70;;;15.80;59.30;;;;;;4100348;28;20355;-85
2022/08/06 07:09:19;;;;;;;5.70;1.83;;;15.80;59.00;;;;;;4098066;28;20031;-86
2022/08/06 07:11:23;;;;;;;6.70;2.13;;;15.90;59.00;;;;;;4101521;28;20047;-85
2022/08/06 07:13:25;;;;;;;8.18;1.85;;;15.90;58.80;;;;;;4102098;28;20035;-85
2022/08/06 07:15:29;;;;;;;5.20;2.10;;;15.90;58.70;;;;;;4103776;28;20442;-85
2022/08/06 07:17:34;;;;;;;5.93;2.10;;;16.00;58.60;;;;;;4102301;28;20038;-86
2022/08/06 07:19:35;;;;;;;6.97;2.20;;;16.10;58.60;;;;;;4097219;28;20035;-86
2022/08/06 07:21:39;;;;;;;10.90;2.33;;;16.10;58.60;;;;;;4096982;28;20459;-86
2022/08/06 07:23:42;;;;;;;5.60;1.92;;;16.10;58.10;;;;;;4085957;29;20034;-85
2022/08/06 07:25:46;;;;;;;7.72;2.38;;;16.20;58.40;;;;;;4103148;28;20083;-86
2022/08/06 07:27:50;;;;;;;6.35;1.95;;;16.20;58.30;;;;;;4100849;28;20188;-85
2022/08/06 07:29:53;;;;;;;5.80;2.30;;;16.30;58.30;;;;;;4101579;28;20031;-86
2022/08/06 07:31:55;;;;;;;5.30;2.58;;;16.40;58.40;;;;;;4101199;28;20117;-86
2022/08/06 07:33:56;;;;;;;8.13;2.65;;;16.40;58.10;;;;;;4101688;28;20492;-86
2022/08/06 07:35:59;;;;;;;6.57;2.45;;;16.50;57.40;;;;;;4101264;28;20046;-86
2022/08/06 07:38:04;;;;;;;3.55;2.22;;;16.50;57.60;;;;;;4085581;29;20126;-87
2022/08/06 07:40:08;;;;;;;6.38;2.60;;;16.60;56.80;;;;;;4103569;28;20094;-85
2022/08/06 07:42:13;;;;;;;8.57;2.70;;;16.60;56.40;;;;;;4100132;28;20042;-87
2022/08/06 07:44:14;;;;;;;6.72;2.50;;;16.70;56.60;;;;;;4103759;28;20024;-86
2022/08/06 07:46:19;;;;;;;6.30;2.50;;;16.70;56.70;;;;;;4099524;28;20067;-85
2022/08/06 07:48:26;;;;;;;6.25;2.60;;;16.80;56.00;;;;;;4102656;28;20090;-85
2022/08/06 07:50:27;;;;;;;10.38;2.55;;;16.80;55.60;;;;;;4101704;28;20041;-85
2022/08/06 07:52:29;;;;;;;6.15;2.40;;;16.80;55.50;;;;;;4102427;28;20031;-86
2022/08/06 07:54:31;;;;;;;6.63;2.33;;;16.90;55.00;;;;;;4105939;28;20046;-86
2022/08/06 07:56:34;;;;;;;7.55;2.72;;;16.90;55.20;;;;;;4104741;28;20031;-86
2022/08/06 07:58:36;;;;;;;4.15;2.50;;;16.90;55.20;;;;;;4103024;28;20038;-86
2022/08/06 08:00:37;;;;;;;7.03;3.03;;;17.00;55.30;;;;;;4101905;28;20086;-84
2022/08/06 08:02:38;;;;;;;4.57;2.22;;;17.00;54.90;;;;;;4070199;29;20176;-85
2022/08/06 08:07:02;;;;;;;6.85;2.45;;;17.10;54.70;;;;;;4104328;28;20038;-86
2022/08/06 08:09:07;;;;;;;12.55;2.65;;;17.10;55.60;;;;;;4098890;28;20033;-87
2022/08/06 08:11:09;;;;;;;5.18;2.40;;;17.20;54.70;;;;;;4083107;29;20055;-85
2022/08/06 08:13:11;;;;;;;7.75;2.80;;;17.20;54.70;;;;;;4098621;28;20102;-85
2022/08/06 08:15:11;;;;;;;6.82;3.05;;;17.30;54.10;;;;;;4082618;29;21399;-87
2022/08/06 08:17:13;;;;;;;5.70;2.97;;;17.30;53.90;;;;;;4097543;28;20032;-87
2022/08/06 08:19:32;;;;;;;7.72;2.80;;;17.30;53.50;;;;;;4095744;28;20029;-88
2022/08/06 08:21:33;;;;;;;10.52;2.90;;;17.40;53.20;;;;;;4078797;29;20492;-88
2022/08/06 08:23:36;;;;;;;6.13;2.58;;;17.40;53.20;;;;;;4090555;28;20090;-84
2022/08/06 08:25:36;;;;;;;8.60;3.10;;;17.50;53.10;;;;;;4093849;28;20043;-84
2022/08/06 08:27:38;;;;;;;10.40;2.85;;;17.60;53.50;;;;;;4096057;28;20035;-86
2022/08/06 08:29:41;;;;;;;6.20;2.80;;;17.60;53.40;;;;;;4063351;29;20036;-85
2022/08/06 08:31:41;;;;;;;6.38;2.65;;;17.60;53.20;;;;;;4083066;29;20043;-88
2022/08/06 08:33:43;;;;;;;16.33;4.10;;;17.70;51.90;;;;;;4097082;28;20035;-87
2022/08/06 08:35:44;;;;;;;5.03;2.38;;;17.80;51.80;;;;;;4083153;28;20027;-87
2022/08/06 08:37:45;;;;;;;5.85;2.40;;;17.90;51.20;;;;;;4096000;28;20023;-86
2022/08/06 08:39:46;;;;;;;4.65;2.50;;;17.90;50.20;;;;;;4096571;28;20066;-86
2022/08/06 08:41:50;;;;;;;5.07;2.60;;;18.00;50.50;;;;;;4079587;29;20042;-87
2022/08/06 08:44:05;;;;;;;6.38;2.65;;;18.10;50.30;;;;;;4077991;29;20031;-86
2022/08/06 08:46:09;;;;;;;5.07;2.75;;;18.20;50.20;;;;;;4079674;29;20062;-86
2022/08/06 08:48:12;;;;;;;3.63;2.72;;;18.30;50.40;;;;;;4081173;29;20027;-85
2022/08/06 08:50:14;;;;;;;16.73;3.05;;;18.30;49.80;;;;;;4109138;28;20792;-86
2022/08/06 08:52:19;;;;;;;5.55;2.88;;;18.40;49.50;;;;;;4094313;28;20473;-87
2022/08/06 08:54:22;;;;;;;8.10;2.72;;;18.40;48.80;;;;;;4096550;28;20035;-85
2022/08/06 08:56:24;;;;;;;5.38;3.25;;;18.40;48.20;;;;;;4093222;28;20039;-85
2022/08/06 08:58:25;;;;;;;4.82;2.70;;;18.30;48.20;;;;;;4079779;29;20046;-85
2022/08/06 09:00:26;;;;;;;6.65;3.30;;;18.20;48.10;;;;;;4079699;29;20118;-87
2022/08/06 09:02:27;;;;;;;5.78;2.75;;;18.20;48.40;;;;;;4094853;28;20059;-85
2022/08/06 09:04:28;;;;;;;8.10;2.53;;;18.10;48.80;;;;;;4078899;29;20106;-87
2022/08/06 09:06:29;;;;;;;11.30;3.13;;;18.00;49.40;;;;;;4094337;28;20039;-85
2022/08/06 09:08:31;;;;;;;6.32;2.50;;;18.00;49.60;;;;;;4096542;28;20122;-86
2022/08/06 09:10:32;;;;;;;9.70;3.33;;;17.90;49.80;;;;;;4094170;28;20083;-86
2022/08/06 09:12:33;;;;;;;4.68;2.85;;;17.90;50.30;;;;;;4079412;29;20027;-86
2022/08/06 09:14:37;;;;;;;6.65;2.88;;;17.80;50.50;;;;;;4094149;28;20027;-88
2022/08/06 09:16:38;;;;;;;8.35;2.85;;;17.80;51.00;;;;;;4078617;29;20043;-87
2022/08/06 09:18:39;;;;;;;7.45;3.10;;;17.70;51.20;;;;;;4097737;28;20535;-86
2022/08/06 09:20:40;;;;;;;6.78;3.42;;;17.70;51.30;;;;;;4063303;29;20566;-86
2022/08/06 09:22:44;;;;;;;7.95;2.75;;;17.70;51.20;;;;;;4096441;28;22077;-85
2022/08/06 09:24:44;;;;;;;6.63;3.22;;;17.70;50.90;;;;;;4079328;29;20035;-86
2022/08/06 09:27:10;;;;;;;11.35;3.28;;;17.80;51.30;;;;;;4076514;29;20075;-86
2022/08/06 09:29:21;;;;;;;5.25;2.60;;;17.80;51.20;;;;;;4096356;28;20503;-86
2022/08/06 09:31:21;;;;;;;8.82;2.55;;;17.90;51.20;;;;;;4097358;28;20130;-86
2022/08/06 09:33:22;;;;;;;5.72;3.03;;;18.00;51.40;;;;;;4080594;29;20103;-86
2022/08/06 09:35:28;;;;;;;7.40;2.90;;;18.10;51.10;;;;;;4099328;28;20115;-85
2022/08/06 09:37:29;;;;;;;5.63;2.90;;;18.20;50.90;;;;;;4095240;28;20027;-87
2022/08/06 09:39:39;;;;;;;9.32;3.00;;;18.30;50.80;;;;;;4081117;29;20040;-86
2022/08/06 09:41:51;;;;;;;8.18;3.17;;;18.40;50.20;;;;;;4098830;28;20094;-85
2022/08/06 09:43:54;;;;;;;6.95;3.05;;;18.40;49.50;;;;;;4098051;28;20069;-87
2022/08/06 09:45:55;;;;;;;8.60;3.22;;;18.40;48.80;;;;;;4093596;28;20027;-86
2022/08/06 09:48:04;;;;;;;7.40;2.45;;;18.40;49.00;;;;;;4080154;29;20067;-85
2022/08/06 09:50:07;;;;;;;7.82;3.28;;;18.30;48.20;;;;;;4094729;28;20047;-84
2022/08/06 09:52:13;;;;;;;4.05;2.60;;;18.30;47.90;;;;;;4062037;29;20039;-86
2022/08/06 09:54:18;;;;;;;5.50;2.53;;;18.30;48.00;;;;;;4095762;28;20081;-85
2022/08/06 09:56:18;;;;;;;10.65;3.10;;;18.30;48.30;;;;;;4077289;29;20051;-87
2022/08/06 09:58:49;;;;;;;4.60;2.50;;;18.30;49.00;;;;;;4060397;29;20040;-86
2022/08/06 10:00:50;;;;;;;8.45;2.78;;;18.40;48.20;;;;;;4001899;29;20053;-85
2022/08/06 10:02:57;;;;;;;5.68;2.60;;;18.50;47.80;;;;;;4020572;29;20616;-87
2022/08/06 10:05:13;;;;;;;11.05;2.88;;;18.50;47.50;;;;;;4030490;29;20220;-85
2022/08/06 10:07:16;;;;;;;7.95;2.90;;;18.60;48.00;;;;;;4028798;29;20057;-83
2022/08/06 10:09:16;;;;;;;8.98;2.97;;;18.60;47.80;;;;;;4049320;29;20047;-86
2022/08/06 10:11:34;;;;;;;6.10;3.00;;;18.60;48.00;;;;;;4021203;29;20588;-86
2022/08/06 10:13:37;;;;;;;6.22;2.80;;;18.60;48.10;;;;;;4046548;29;20056;-86
2022/08/06 10:15:38;;;;;;;;;;;18.60;48.50;;;;;;4031287;29;20048;-86
2022/08/06 10:17:45;;;;;;;8.63;2.90;;;18.60;48.50;;;;;;4047769;29;20443;-86
2022/08/06 10:20:07;;;;;;;6.28;2.53;;;18.60;47.50;;;;;;4020759;29;20044;-84
2022/08/06 10:22:18;;;;;;;9.18;2.70;;;18.70;48.00;;;;;;4044573;29;20056;-86
2022/08/06 10:24:20;;;;;;;8.43;3.15;;;18.70;47.50;;;;;;4044403;29;20045;-87
2022/08/06 10:26:32;;;;;;;9.18;2.05;;;18.80;47.50;;;;;;4031167;29;20069;-87
2022/08/06 10:28:35;;;;;;;8.38;2.28;;;18.80;46.10;;;;;;4032518;29;20041;-84
2022/08/06 10:30:36;;;;;;;4.30;2.50;;;18.90;45.60;;;;;;4048751;29;20048;-87
2022/08/06 10:32:49;;;;;;;7.15;2.20;;;18.90;45.40;;;;;;4037071;29;20084;-82
2022/08/06 10:34:53;;;;;;;5.78;2.33;;;18.90;45.50;;;;;;4050813;29;20106;-85
2022/08/06 10:36:57;;;;;;;6.55;2.08;;;18.90;46.10;;;;;;4063012;28;20796;-88
2022/08/06 10:39:03;;;;;;;5.47;2.05;;;18.80;46.40;;;;;;4095891;28;20189;-85
2022/08/06 10:41:08;;;;;;;7.70;2.22;;;18.80;46.20;;;;;;4091263;28;20277;-87
2022/08/06 10:43:13;;;;;;;6.55;2.20;;;18.80;46.80;;;;;;4101015;28;20063;-86
2022/08/06 10:45:14;;;;;;;8.90;2.28;;;18.80;47.00;;;;;;4102133;28;20036;-85
2022/08/06 10:47:15;;;;;;;9.50;2.38;;;18.80;47.20;;;;;;4083775;29;20035;-86
2022/08/06 10:49:18;;;;;;;8.65;2.15;;;18.70;47.20;;;;;;4070828;29;20079;-86
2022/08/06 10:51:19;;;;;;;14.80;2.90;;;18.80;46.90;;;;;;4104563;28;20034;-86
2022/08/06 10:53:21;;;;;;;5.97;1.90;;;18.80;46.30;;;;;;4085267;29;20502;-87